Time;durP1;ratioP1;P1;durP2;ratioP2;P2;SDS_P1;SDS_P2;PMS_P1;PMS_P2;Temp;Humidity;BMP_temperature;BMP_pressure;BME280_temperature;BME280_humidity;BME280_pressure;Samples;Min_cycle;Max_cycle;Signal;HPM_P1;HPM_P2
2023/08/18 00:00:34;;;;;;;0.77;0.60;;;25.10;53.10;;;;;;5042393;28;20095;-65
2023/08/18 00:03:00;;;;;;;0.85;0.70;;;25.10;53.10;;;;;;5068336;28;20021;-66
2023/08/18 00:05:26;;;;;;;0.75;0.57;;;25.10;53.10;;;;;;5060840;28;20100;-68
2023/08/18 00:07:51;;;;;;;0.60;0.60;;;25.10;53.20;;;;;;5064058;28;20028;-65
2023/08/18 00:10:17;;;;;;;0.68;0.60;;;25.10;53.20;;;;;;5063540;28;20020;-65
2023/08/18 00:12:43;;;;;;;0.77;0.65;;;25.10;53.20;;;;;;5053203;28;20184;-65
2023/08/18 00:15:09;;;;;;;0.88;0.88;;;25.10;53.20;;;;;;5067331;28;20021;-66
2023/08/18 00:17:35;;;;;;;0.73;0.70;;;25.10;53.20;;;;;;5044434;28;20119;-64
2023/08/18 00:20:02;;;;;;;0.50;0.50;;;25.00;53.10;;;;;;5075309;28;20161;-64
2023/08/18 00:22:29;;;;;;;1.00;0.85;;;25.00;53.20;;;;;;5070803;28;20112;-63
2023/08/18 00:24:56;;;;;;;0.80;0.60;;;25.10;53.70;;;;;;5065355;28;20057;-64
2023/08/18 00:27:22;;;;;;;0.60;0.60;;;25.00;53.20;;;;;;5070359;28;20085;-68
2023/08/18 00:29:48;;;;;;;1.52;0.63;;;25.00;53.20;;;;;;5062491;28;20060;-65
2023/08/18 00:32:14;;;;;;;0.80;0.65;;;25.00;53.20;;;;;;5069109;28;20076;-65
2023/08/18 00:34:40;;;;;;;1.10;0.77;;;25.00;53.20;;;;;;5061696;28;20040;-63
2023/08/18 00:37:06;;;;;;;0.70;0.70;;;25.00;53.20;;;;;;5030418;28;20077;-62
2023/08/18 00:39:31;;;;;;;0.70;0.70;;;25.10;53.30;;;;;;5073637;28;20044;-65
2023/08/18 00:41:57;;;;;;;1.17;0.60;;;25.00;53.20;;;;;;5051109;28;20028;-64
2023/08/18 00:44:23;;;;;;;0.82;0.70;;;25.00;53.20;;;;;;5042525;28;20392;-65
2023/08/18 00:46:51;;;;;;;0.65;0.45;;;25.00;53.20;;;;;;5070123;28;20073;-63
2023/08/18 00:49:18;;;;;;;0.60;0.60;;;25.00;53.20;;;;;;5054972;28;20107;-63
2023/08/18 00:51:45;;;;;;;0.70;0.60;;;25.00;53.20;;;;;;5063390;28;20040;-65
2023/08/18 00:54:12;;;;;;;0.45;0.43;;;25.00;53.20;;;;;;5069563;28;20017;-64
2023/08/18 00:56:40;;;;;;;0.80;0.63;;;25.00;53.20;;;;;;5071119;28;20063;-69
2023/08/18 00:59:06;;;;;;;1.40;0.60;;;25.00;53.20;;;;;;5063039;28;20032;-66
2023/08/18 01:01:33;;;;;;;0.88;0.73;;;25.00;53.20;;;;;;5062693;28;20052;-64
2023/08/18 01:04:00;;;;;;;1.38;0.50;;;25.00;53.20;;;;;;5049057;28;20057;-65
2023/08/18 01:06:26;;;;;;;0.77;0.60;;;25.00;53.20;;;;;;5071154;28;20036;-64
2023/08/18 01:08:52;;;;;;;0.98;0.68;;;25.00;53.20;;;;;;5070635;28;20021;-64
2023/08/18 01:11:27;;;;;;;1.10;0.70;;;25.00;53.30;;;;;;5055553;28;20020;-64
2023/08/18 01:14:21;;;;;;;0.68;0.50;;;25.00;53.30;;;;;;5072107;28;20032;-63
2023/08/18 01:16:53;;;;;;;0.60;0.60;;;25.00;53.20;;;;;;5067670;28;20588;-67
2023/08/18 01:19:21;;;;;;;0.60;0.60;;;24.90;53.20;;;;;;5073003;28;20139;-65
2023/08/18 01:21:53;;;;;;;0.60;0.50;;;24.90;53.20;;;;;;5051356;28;20044;-63
2023/08/18 01:24:20;;;;;;;0.90;0.65;;;25.00;53.30;;;;;;5050940;28;20024;-64
2023/08/18 01:26:47;;;;;;;0.60;0.50;;;24.90;53.20;;;;;;5056073;28;20036;-64
2023/08/18 01:29:12;;;;;;;0.55;0.50;;;24.90;53.20;;;;;;5050123;28;20033;-65
2023/08/18 01:31:39;;;;;;;0.47;0.45;;;24.90;53.20;;;;;;5037516;28;20040;-65
2023/08/18 01:34:08;;;;;;;0.95;0.70;;;24.90;53.20;;;;;;5046738;28;20016;-66
2023/08/18 01:36:41;;;;;;;1.10;0.65;;;24.90;53.90;;;;;;5069481;28;20101;-67
2023/08/18 01:39:09;;;;;;;0.60;0.60;;;24.90;53.20;;;;;;5058149;28;20028;-65
2023/08/18 01:41:35;;;;;;;0.88;0.70;;;24.90;53.20;;;;;;5056059;28;20129;-65
2023/08/18 01:44:05;;;;;;;1.45;0.73;;;24.90;53.20;;;;;;5040461;28;20021;-65
2023/08/18 01:46:31;;;;;;;0.50;0.50;;;24.90;53.20;;;;;;5068520;28;20039;-64
2023/08/18 01:48:59;;;;;;;0.63;0.60;;;24.90;53.20;;;;;;5052897;28;20017;-62
2023/08/18 01:51:25;;;;;;;0.60;0.50;;;24.90;53.20;;;;;;5034085;28;20036;-64
2023/08/18 01:53:51;;;;;;;0.98;0.60;;;24.90;53.20;;;;;;5071483;28;20470;-64
2023/08/18 01:56:19;;;;;;;1.10;0.60;;;24.90;53.20;;;;;;5049990;28;20376;-66
2023/08/18 01:58:45;;;;;;;0.82;0.60;;;24.90;53.20;;;;;;5053054;28;20028;-62
2023/08/18 02:01:10;;;;;;;0.70;0.60;;;24.90;53.20;;;;;;5051401;28;20036;-62
2023/08/18 02:03:36;;;;;;;0.70;0.70;;;24.90;53.20;;;;;;5056629;28;20436;-65
2023/08/18 02:06:03;;;;;;;0.82;0.70;;;24.90;53.20;;;;;;5047253;28;20057;-65
2023/08/18 02:08:29;;;;;;;0.70;0.40;;;24.90;53.20;;;;;;5065091;28;20024;-65
2023/08/18 02:11:04;;;;;;;0.73;0.50;;;24.90;53.20;;;;;;5043392;28;20112;-64
2023/08/18 02:13:31;;;;;;;0.68;0.63;;;24.90;53.20;;;;;;5067393;28;20151;-64
2023/08/18 02:15:58;;;;;;;0.90;0.60;;;24.80;53.20;;;;;;5062255;28;20446;-64
2023/08/18 02:18:27;;;;;;;1.58;0.60;;;24.80;53.20;;;;;;5051836;28;20032;-65
2023/08/18 02:21:00;;;;;;;0.40;0.40;;;24.90;53.20;;;;;;5032585;28;20059;-65
2023/08/18 02:23:28;;;;;;;0.75;0.40;;;24.90;53.20;;;;;;5074050;28;20025;-65
2023/08/18 02:26:05;;;;;;;1.42;0.50;;;24.90;53.20;;;;;;5061958;28;20155;-67
2023/08/18 02:28:32;;;;;;;0.40;0.40;;;24.80;53.20;;;;;;5052627;28;20089;-64
2023/08/18 02:31:06;;;;;;;0.98;0.50;;;24.80;53.20;;;;;;5067077;28;20024;-65
2023/08/18 02:33:33;;;;;;;0.50;0.50;;;24.80;53.20;;;;;;5051609;28;20119;-65
2023/08/18 02:35:59;;;;;;;0.50;0.50;;;24.80;53.20;;;;;;5071146;28;20521;-64
2023/08/18 02:38:26;;;;;;;0.75;0.50;;;24.80;53.20;;;;;;5070098;28;20111;-65
2023/08/18 02:40:52;;;;;;;0.68;0.60;;;24.80;53.20;;;;;;5045998;28;20033;-63
2023/08/18 02:43:22;;;;;;;0.90;0.60;;;24.80;53.20;;;;;;5072318;28;20080;-66
2023/08/18 02:45:48;;;;;;;0.68;0.50;;;24.80;53.30;;;;;;5044957;28;20029;-65
2023/08/18 02:48:15;;;;;;;0.77;0.60;;;24.80;53.30;;;;;;5026615;28;20257;-64
2023/08/18 02:50:41;;;;;;;0.70;0.70;;;24.80;53.30;;;;;;5031411;28;20065;-63
2023/08/18 02:53:07;;;;;;;0.55;0.50;;;24.80;53.30;;;;;;5031123;28;20054;-63
2023/08/18 02:55:38;;;;;;;0.60;0.43;;;24.80;53.30;;;;;;5040308;28;20455;-63
2023/08/18 02:58:04;;;;;;;0.55;0.55;;;24.80;53.30;;;;;;5027302;28;20091;-64
2023/08/18 03:00:31;;;;;;;1.05;0.60;;;24.80;53.30;;;;;;5018497;28;20440;-64
2023/08/18 03:02:58;;;;;;;1.02;0.60;;;24.80;53.30;;;;;;5026146;28;20420;-64
2023/08/18 03:05:26;;;;;;;0.52;0.52;;;24.80;53.30;;;;;;5031281;28;20119;-63
2023/08/18 03:07:52;;;;;;;0.55;0.55;;;24.80;53.30;;;;;;5022258;28;20026;-64
2023/08/18 03:10:21;;;;;;;1.20;0.70;;;24.70;53.30;;;;;;5032710;28;20033;-66
2023/08/18 03:12:46;;;;;;;0.93;0.55;;;24.70;53.30;;;;;;5021802;28;20313;-64
2023/08/18 03:15:13;;;;;;;0.80;0.68;;;24.70;53.30;;;;;;5030131;28;20025;-64
2023/08/18 03:17:39;;;;;;;0.93;0.52;;;24.70;53.30;;;;;;5024590;28;20323;-65
2023/08/18 03:20:07;;;;;;;0.85;0.68;;;24.80;53.40;;;;;;5023151;28;20096;-67
2023/08/18 03:22:34;;;;;;;0.70;0.70;;;24.80;53.40;;;;;;5044077;28;20110;-65
2023/08/18 03:25:01;;;;;;;0.80;0.65;;;24.70;53.40;;;;;;5026252;28;20357;-66
2023/08/18 03:27:27;;;;;;;1.48;1.00;;;24.70;53.40;;;;;;5024204;28;20113;-65
2023/08/18 03:29:55;;;;;;;1.10;0.70;;;24.70;53.40;;;;;;5027729;28;20104;-65
2023/08/18 03:32:22;;;;;;;1.17;0.70;;;24.70;53.40;;;;;;5041105;28;20098;-64
2023/08/18 03:34:48;;;;;;;1.52;0.80;;;24.70;54.00;;;;;;5025854;28;20032;-66
2023/08/18 03:37:14;;;;;;;0.60;0.60;;;24.70;53.40;;;;;;5023086;28;20106;-63
2023/08/18 03:39:40;;;;;;;1.10;0.90;;;24.70;53.40;;;;;;5029761;28;20076;-64
2023/08/18 03:42:06;;;;;;;0.95;0.85;;;24.70;53.40;;;;;;5019060;28;20093;-64
2023/08/18 03:44:32;;;;;;;1.75;0.77;;;24.70;53.50;;;;;;5026287;28;20026;-64
2023/08/18 03:46:58;;;;;;;1.33;0.90;;;24.70;53.50;;;;;;5036418;28;20450;-64
2023/08/18 03:49:24;;;;;;;0.70;0.70;;;24.70;53.50;;;;;;5032235;28;20200;-63
2023/08/18 03:51:50;;;;;;;0.73;0.73;;;24.70;53.50;;;;;;5029016;28;20137;-63
2023/08/18 03:54:16;;;;;;;1.10;0.93;;;24.70;53.50;;;;;;5020467;28;20018;-65
2023/08/18 03:56:42;;;;;;;2.45;0.90;;;24.70;53.50;;;;;;5052653;28;20040;-64
2023/08/18 03:59:08;;;;;;;1.67;0.90;;;24.70;53.50;;;;;;5032121;28;20033;-64
2023/08/18 04:01:34;;;;;;;1.10;0.90;;;24.70;53.50;;;;;;5006978;28;20045;-62
2023/08/18 04:04:00;;;;;;;0.90;0.75;;;24.70;53.50;;;;;;5052069;28;20040;-65
2023/08/18 04:06:26;;;;;;;1.55;0.98;;;24.70;53.50;;;;;;5028836;28;20022;-62
2023/08/18 04:09:06;;;;;;;0.95;0.85;;;24.70;53.60;;;;;;5025908;28;20033;-63
2023/08/18 04:11:35;;;;;;;0.93;0.80;;;24.70;53.50;;;;;;5040274;28;20075;-65
2023/08/18 04:14:02;;;;;;;1.15;1.02;;;24.70;53.50;;;;;;5024227;28;20074;-64
2023/08/18 04:16:33;;;;;;;2.05;1.05;;;24.70;53.60;;;;;;5024303;28;20035;-62
2023/08/18 04:19:00;;;;;;;2.13;1.02;;;24.70;53.60;;;;;;5036174;28;20140;-65
2023/08/18 04:21:28;;;;;;;0.70;0.65;;;24.70;53.60;;;;;;5025166;28;20034;-65
2023/08/18 04:23:54;;;;;;;1.80;1.30;;;24.60;53.60;;;;;;5033525;28;20095;-62
2023/08/18 04:26:20;;;;;;;1.00;0.80;;;24.70;53.60;;;;;;5012196;28;20029;-64
2023/08/18 04:28:47;;;;;;;1.75;1.15;;;24.70;53.60;;;;;;5029257;28;20352;-64
2023/08/18 04:31:13;;;;;;;1.40;1.05;;;24.70;53.60;;;;;;5030293;28;20345;-65
2023/08/18 04:33:50;;;;;;;1.55;0.95;;;24.70;53.70;;;;;;5019826;28;20025;-63
2023/08/18 04:36:16;;;;;;;1.85;0.98;;;24.70;53.70;;;;;;5026544;28;20030;-62
2023/08/18 04:38:42;;;;;;;1.30;0.93;;;24.60;53.60;;;;;;5020731;28;20311;-65
2023/08/18 04:41:14;;;;;;;1.42;1.00;;;24.60;53.60;;;;;;5011961;28;20044;-66
2023/08/18 04:43:40;;;;;;;1.00;0.70;;;24.60;53.60;;;;;;5022640;28;20030;-65
2023/08/18 04:46:07;;;;;;;1.50;1.38;;;24.60;53.70;;;;;;5025353;28;20511;-67
2023/08/18 04:48:34;;;;;;;1.13;0.95;;;24.60;53.70;;;;;;5019176;28;20117;-64
2023/08/18 04:51:03;;;;;;;1.80;1.17;;;24.60;53.80;;;;;;5023012;28;20057;-66
2023/08/18 04:53:29;;;;;;;1.45;1.10;;;24.60;53.70;;;;;;5021787;28;20185;-64
2023/08/18 04:55:54;;;;;;;1.90;1.20;;;24.60;53.80;;;;;;5028960;28;20163;-63
2023/08/18 04:58:21;;;;;;;1.70;1.30;;;24.60;53.80;;;;;;5043933;28;20393;-66
2023/08/18 05:00:47;;;;;;;1.83;1.20;;;24.60;53.80;;;;;;5054244;28;20392;-63
2023/08/18 05:03:16;;;;;;;1.35;1.05;;;24.60;54.40;;;;;;5049481;28;20029;-64
2023/08/18 05:06:03;;;;;;;2.00;1.20;;;24.60;53.80;;;;;;5054149;28;20025;-64
2023/08/18 05:08:35;;;;;;;1.23;1.00;;;24.60;53.80;;;;;;5032443;28;20020;-62
2023/08/18 05:11:11;;;;;;;2.45;1.20;;;24.60;53.80;;;;;;5053892;28;20025;-65
2023/08/18 05:13:42;;;;;;;1.35;1.10;;;24.60;53.80;;;;;;5051320;28;20154;-64
2023/08/18 05:16:10;;;;;;;2.78;1.48;;;24.60;53.80;;;;;;5052433;28;20025;-63
2023/08/18 05:18:38;;;;;;;2.53;1.27;;;24.60;53.90;;;;;;5034243;28;20109;-63
2023/08/18 05:21:04;;;;;;;2.40;1.23;;;24.60;53.80;;;;;;5049299;28;20276;-66
2023/08/18 05:23:34;;;;;;;1.50;1.10;;;24.60;53.90;;;;;;5052556;28;20040;-64
2023/08/18 05:26:02;;;;;;;1.83;1.20;;;24.60;53.90;;;;;;5038159;28;20061;-64
2023/08/18 05:28:32;;;;;;;1.98;1.45;;;24.60;53.90;;;;;;5033442;28;20037;-64
2023/08/18 05:31:00;;;;;;;1.85;1.20;;;24.60;53.90;;;;;;5033449;28;20025;-65
2023/08/18 05:33:31;;;;;;;1.65;1.20;;;24.60;53.90;;;;;;5044489;28;20028;-64
2023/08/18 05:35:59;;;;;;;2.28;1.20;;;24.60;53.90;;;;;;5048465;28;20073;-63
2023/08/18 05:38:25;;;;;;;1.98;1.27;;;24.60;53.90;;;;;;5014036;28;20217;-62
2023/08/18 05:40:53;;;;;;;1.98;1.30;;;24.60;53.90;;;;;;5043151;28;20087;-63
2023/08/18 05:43:19;;;;;;;2.20;1.40;;;24.60;53.90;;;;;;5029798;28;20322;-63
2023/08/18 05:45:46;;;;;;;1.67;1.15;;;24.60;54.00;;;;;;5024987;28;20033;-63
2023/08/18 05:48:13;;;;;;;1.85;1.20;;;24.60;53.90;;;;;;5056752;28;20044;-65
2023/08/18 05:50:40;;;;;;;1.33;1.05;;;24.60;54.00;;;;;;5065633;28;20040;-66
2023/08/18 05:53:06;;;;;;;1.50;1.17;;;24.60;54.00;;;;;;5062192;28;20371;-63
2023/08/18 05:55:32;;;;;;;2.25;1.48;;;24.60;54.00;;;;;;5061715;28;20051;-62
2023/08/18 05:58:02;;;;;;;1.63;1.30;;;24.60;54.00;;;;;;5072531;28;20040;-64
2023/08/18 06:00:30;;;;;;;2.05;1.27;;;24.60;54.00;;;;;;5063544;28;20233;-63
2023/08/18 06:02:56;;;;;;;2.88;1.70;;;24.60;54.00;;;;;;5040610;28;20119;-65
2023/08/18 06:05:28;;;;;;;2.53;1.50;;;24.60;54.00;;;;;;5072191;28;20043;-61
2023/08/18 06:07:57;;;;;;;1.98;1.30;;;24.60;54.00;;;;;;5048101;28;20036;-63
2023/08/18 06:10:23;;;;;;;2.47;1.60;;;24.60;54.10;;;;;;5075605;28;20052;-63
2023/08/18 06:12:49;;;;;;;3.15;1.33;;;24.60;54.10;;;;;;5072438;28;20036;-66
2023/08/18 06:15:17;;;;;;;3.05;1.30;;;24.60;54.10;;;;;;5079329;28;20032;-65
2023/08/18 06:17:44;;;;;;;2.42;1.60;;;24.60;54.10;;;;;;5070335;28;20055;-66
2023/08/18 06:20:10;;;;;;;2.22;1.52;;;24.60;54.10;;;;;;5073285;28;20039;-70
2023/08/18 06:22:36;;;;;;;2.95;1.30;;;24.60;54.10;;;;;;5092999;28;20024;-66
2023/08/18 06:25:06;;;;;;;1.48;1.13;;;24.60;54.20;;;;;;5049948;28;20033;-65
2023/08/18 06:27:33;;;;;;;2.50;1.85;;;24.60;54.20;;;;;;5070819;28;20028;-66
2023/08/18 06:29:58;;;;;;;2.60;1.40;;;24.70;54.20;;;;;;5078523;28;20028;-64
2023/08/18 06:32:24;;;;;;;2.15;1.52;;;24.60;54.20;;;;;;5061646;28;20035;-66
2023/08/18 06:34:51;;;;;;;2.40;1.58;;;24.60;54.20;;;;;;5067951;28;20525;-64
2023/08/18 06:37:18;;;;;;;2.45;1.70;;;24.60;54.20;;;;;;5066770;28;20324;-63
2023/08/18 06:39:45;;;;;;;1.73;1.60;;;24.60;54.20;;;;;;5062401;28;20466;-64
2023/08/18 06:42:17;;;;;;;2.35;1.70;;;24.70;54.30;;;;;;5068145;28;20052;-67
2023/08/18 06:44:43;;;;;;;3.17;1.77;;;24.70;54.30;;;;;;5064330;28;20074;-64
2023/08/18 06:47:08;;;;;;;2.10;1.65;;;24.70;54.30;;;;;;5033222;28;20057;-64
2023/08/18 06:49:34;;;;;;;2.15;1.42;;;24.70;54.30;;;;;;5028443;28;20464;-66
2023/08/18 06:52:00;;;;;;;1.55;1.30;;;24.70;54.30;;;;;;5022225;28;20037;-65
2023/08/18 06:54:26;;;;;;;2.45;1.70;;;24.70;54.30;;;;;;5020210;28;20432;-63
2023/08/18 06:56:52;;;;;;;2.40;1.45;;;24.70;54.30;;;;;;5024894;28;20026;-65
2023/08/18 06:59:18;;;;;;;3.67;1.50;;;24.70;54.30;;;;;;5027205;28;20339;-65
2023/08/18 07:01:44;;;;;;;2.90;1.55;;;24.70;54.40;;;;;;5043063;28;20121;-62
2023/08/18 07:04:11;;;;;;;2.35;1.60;;;24.70;54.40;;;;;;5027332;28;20028;-66
2023/08/18 07:06:44;;;;;;;2.45;1.65;;;24.70;54.50;;;;;;5024095;28;20029;-66
2023/08/18 07:09:10;;;;;;;2.30;1.50;;;24.70;54.50;;;;;;5031921;28;20049;-65
2023/08/18 07:11:37;;;;;;;2.63;1.63;;;24.70;54.50;;;;;;5031846;28;20025;-64
2023/08/18 07:14:03;;;;;;;2.50;1.52;;;24.70;54.50;;;;;;5031305;28;20040;-67
2023/08/18 07:16:32;;;;;;;2.67;1.75;;;24.80;54.70;;;;;;5027553;28;20128;-63
2023/08/18 07:18:58;;;;;;;2.15;1.60;;;24.70;54.60;;;;;;5026847;28;20082;-62
2023/08/18 07:21:24;;;;;;;1.63;1.48;;;24.70;54.70;;;;;;5041529;28;20056;-66
2023/08/18 07:23:50;;;;;;;1.90;1.38;;;24.70;54.70;;;;;;5019494;28;20081;-64
2023/08/18 07:26:16;;;;;;;2.70;1.60;;;24.70;54.70;;;;;;5043015;28;20030;-66
2023/08/18 07:28:42;;;;;;;2.17;1.35;;;24.70;54.70;;;;;;5033194;28;20041;-65
2023/08/18 07:31:08;;;;;;;1.60;1.30;;;24.70;54.70;;;;;;5041175;28;20029;-63
2023/08/18 07:33:35;;;;;;;2.25;1.60;;;24.80;54.70;;;;;;5019490;28;20393;-62
2023/08/18 07:36:02;;;;;;;2.20;1.60;;;24.80;54.70;;;;;;5039882;28;20140;-64
2023/08/18 07:38:33;;;;;;;1.90;1.35;;;24.80;54.70;;;;;;5033486;28;20025;-63
2023/08/18 07:40:59;;;;;;;1.90;1.42;;;24.80;54.70;;;;;;5039444;28;20186;-66
2023/08/18 07:43:25;;;;;;;2.30;1.50;;;24.80;54.70;;;;;;5032777;28;20432;-64
2023/08/18 07:45:51;;;;;;;1.58;1.30;;;24.80;54.70;;;;;;5028245;28;20112;-63
2023/08/18 07:48:17;;;;;;;2.35;1.25;;;24.80;54.60;;;;;;5063667;28;20368;-64
2023/08/18 07:50:43;;;;;;;1.70;1.50;;;24.80;54.60;;;;;;5073764;28;21827;-63
2023/08/18 07:53:09;;;;;;;2.20;1.40;;;24.80;54.60;;;;;;5057160;28;20020;-63
2023/08/18 07:55:36;;;;;;;2.50;1.38;;;24.80;54.60;;;;;;5058947;28;20035;-65
2023/08/18 07:58:04;;;;;;;2.03;1.30;;;24.80;54.60;;;;;;5075569;28;20033;-64
2023/08/18 08:00:33;;;;;;;2.05;1.38;;;24.90;54.70;;;;;;5085773;28;20066;-63
2023/08/18 08:02:59;;;;;;;2.45;1.48;;;24.90;55.30;;;;;;5073681;28;20080;-64
2023/08/18 08:05:26;;;;;;;1.85;1.40;;;24.90;54.70;;;;;;5073158;28;20175;-64
2023/08/18 08:07:52;;;;;;;2.85;1.30;;;24.90;54.60;;;;;;5048759;28;20075;-66
2023/08/18 08:10:18;;;;;;;1.83;1.17;;;24.90;54.70;;;;;;5067370;28;20056;-65
2023/08/18 08:12:44;;;;;;;2.63;1.63;;;24.90;54.70;;;;;;5063540;28;20033;-64
2023/08/18 08:15:12;;;;;;;1.80;1.45;;;24.90;54.70;;;;;;5066066;28;20060;-65
2023/08/18 08:17:38;;;;;;;1.80;1.20;;;24.90;54.70;;;;;;5066880;28;20043;-65
2023/08/18 08:20:27;;;;;;;2.08;1.45;;;24.90;54.70;;;;;;5066179;28;20396;-61
2023/08/18 08:22:52;;;;;;;1.42;1.17;;;24.90;54.70;;;;;;5063375;28;20055;-65
2023/08/18 08:25:18;;;;;;;1.90;1.30;;;24.90;54.80;;;;;;5074975;28;20028;-64
2023/08/18 08:27:44;;;;;;;1.70;1.20;;;24.90;54.80;;;;;;5074627;28;20028;-64
2023/08/18 08:30:12;;;;;;;1.63;1.20;;;25.00;54.80;;;;;;5080040;28;20024;-63
2023/08/18 08:32:38;;;;;;;1.75;1.38;;;25.00;54.80;;;;;;5058196;28;20417;-64
2023/08/18 08:35:05;;;;;;;2.00;1.35;;;25.00;54.80;;;;;;5074492;28;20036;-65
2023/08/18 08:37:31;;;;;;;1.58;1.25;;;25.00;54.80;;;;;;5073875;28;20031;-63
2023/08/18 08:39:56;;;;;;;2.08;1.50;;;25.00;54.90;;;;;;5071315;28;20029;-65
2023/08/18 08:42:23;;;;;;;1.50;1.35;;;25.00;54.80;;;;;;5073174;28;20016;-66
2023/08/18 08:44:50;;;;;;;1.67;1.25;;;25.00;54.90;;;;;;5055435;28;20048;-65
2023/08/18 08:47:17;;;;;;;2.10;1.20;;;25.00;54.90;;;;;;5079756;28;20036;-64
2023/08/18 08:49:45;;;;;;;1.73;1.40;;;25.00;54.90;;;;;;5072345;28;20153;-66
2023/08/18 08:52:13;;;;;;;1.70;1.30;;;25.00;54.90;;;;;;5072649;28;20055;-66
2023/08/18 08:54:49;;;;;;;1.85;1.40;;;25.00;54.90;;;;;;5072906;28;20086;-65
2023/08/18 08:57:19;;;;;;;1.92;1.38;;;25.00;54.90;;;;;;5072791;28;20057;-66
2023/08/18 08:59:45;;;;;;;1.67;1.30;;;25.00;54.90;;;;;;5072551;28;20091;-65
2023/08/18 09:02:11;;;;;;;1.92;1.38;;;25.10;55.00;;;;;;5055101;28;20483;-63
2023/08/18 09:04:37;;;;;;;1.77;1.42;;;25.10;55.00;;;;;;5082482;28;20358;-64
2023/08/18 09:07:04;;;;;;;2.22;1.50;;;25.10;55.00;;;;;;5074732;28;20451;-66
2023/08/18 09:09:30;;;;;;;2.10;1.58;;;25.10;55.00;;;;;;5072455;28;20115;-67
2023/08/18 09:12:02;;;;;;;1.85;1.40;;;25.10;55.00;;;;;;5043514;28;20024;-67
2023/08/18 09:14:28;;;;;;;2.63;1.70;;;25.10;55.00;;;;;;5073458;28;20024;-65
2023/08/18 09:16:54;;;;;;;1.58;1.25;;;25.10;55.00;;;;;;5070455;28;20036;-68
2023/08/18 09:19:22;;;;;;;1.92;1.67;;;25.20;55.00;;;;;;5078545;28;20028;-64
2023/08/18 09:21:49;;;;;;;2.22;1.50;;;25.20;55.10;;;;;;5055517;28;20522;-64
2023/08/18 09:24:22;;;;;;;1.60;1.45;;;25.20;55.00;;;;;;5065755;28;20120;-65
2023/08/18 09:26:48;;;;;;;2.38;1.73;;;25.20;55.00;;;;;;5079858;28;20028;-67
2023/08/18 09:29:16;;;;;;;1.50;1.20;;;25.20;55.00;;;;;;5081551;28;20032;-66
2023/08/18 09:31:45;;;;;;;1.50;1.33;;;25.20;55.10;;;;;;5072688;28;20316;-65
2023/08/18 09:34:20;;;;;;;2.40;1.50;;;25.20;55.10;;;;;;5081599;28;20048;-65
2023/08/18 09:36:53;;;;;;;1.55;1.40;;;25.20;55.10;;;;;;5082265;28;20313;-64
2023/08/18 09:39:25;;;;;;;2.10;1.50;;;25.20;55.10;;;;;;5074333;28;20016;-64
2023/08/18 09:41:52;;;;;;;2.55;1.58;;;25.30;55.20;;;;;;5072941;28;20041;-66
2023/08/18 09:44:20;;;;;;;2.30;1.20;;;25.30;55.20;;;;;;5068371;28;20025;-65
2023/08/18 09:46:59;;;;;;;1.65;1.27;;;25.30;55.20;;;;;;5075658;28;20101;-63
2023/08/18 09:49:27;;;;;;;1.90;1.40;;;25.30;55.30;;;;;;5081485;28;20343;-67
2023/08/18 09:52:03;;;;;;;1.63;1.13;;;25.30;55.30;;;;;;5055956;28;20043;-66
2023/08/18 09:54:44;;;;;;;1.50;1.25;;;25.40;55.40;;;;;;5055832;28;20021;-63
2023/08/18 09:57:36;;;;;;;1.52;1.35;;;25.40;55.30;;;;;;5076663;28;20336;-66
2023/08/18 10:00:09;;;;;;;2.20;1.25;;;25.60;55.30;;;;;;5062669;28;20048;-66
2023/08/18 10:02:43;;;;;;;1.60;1.10;;;25.60;55.10;;;;;;5070024;28;20101;-65
2023/08/18 10:05:09;;;;;;;1.67;1.05;;;25.80;54.90;;;;;;5073361;28;20459;-66
2023/08/18 10:07:36;;;;;;;1.10;1.00;;;25.80;54.70;;;;;;5073742;28;20123;-65
2023/08/18 10:10:02;;;;;;;0.90;0.80;;;26.00;54.50;;;;;;5073175;28;20028;-69
2023/08/18 10:12:29;;;;;;;0.88;0.88;;;26.10;54.40;;;;;;5081087;28;20067;-65
2023/08/18 10:14:59;;;;;;;1.35;1.00;;;26.20;54.20;;;;;;5084700;28;20029;-68
2023/08/18 10:17:28;;;;;;;1.20;1.10;;;26.20;53.90;;;;;;5070900;28;20025;-66
2023/08/18 10:19:55;;;;;;;1.15;0.95;;;26.40;53.90;;;;;;5074127;28;20036;-66
2023/08/18 10:22:26;;;;;;;1.75;1.13;;;26.40;54.30;;;;;;5068490;28;20112;-67
2023/08/18 10:24:53;;;;;;;1.23;1.10;;;26.50;53.50;;;;;;5057936;28;20043;-66
2023/08/18 10:27:28;;;;;;;1.42;1.08;;;26.60;53.40;;;;;;5054358;28;20028;-66
2023/08/18 10:29:59;;;;;;;1.30;1.00;;;26.70;53.30;;;;;;5080520;28;20032;-68
2023/08/18 10:32:25;;;;;;;1.52;1.05;;;26.80;53.20;;;;;;5055585;28;20101;-65
2023/08/18 10:34:51;;;;;;;1.30;1.05;;;26.80;53.10;;;;;;5055197;28;20116;-67
2023/08/18 10:37:21;;;;;;;1.40;0.93;;;26.90;53.10;;;;;;5067617;28;20440;-64
2023/08/18 10:39:50;;;;;;;1.65;1.10;;;27.00;53.00;;;;;;5066168;28;20032;-66
2023/08/18 10:42:16;;;;;;;2.33;1.33;;;27.00;52.90;;;;;;5045378;28;20501;-63
2023/08/18 10:45:22;;;;;;;1.05;0.95;;;27.10;52.90;;;;;;5074534;28;20039;-66
2023/08/18 10:47:48;;;;;;;1.25;1.10;;;27.20;52.70;;;;;;5029047;28;20064;-64
2023/08/18 10:50:14;;;;;;;1.23;1.10;;;27.20;52.70;;;;;;5071929;28;20038;-63
2023/08/18 10:52:41;;;;;;;1.77;1.30;;;27.30;52.60;;;;;;5071446;28;20854;-63
2023/08/18 10:55:07;;;;;;;1.50;1.10;;;27.30;52.50;;;;;;5085526;28;20053;-61
2023/08/18 10:57:33;;;;;;;1.23;0.90;;;27.30;52.50;;;;;;5074888;28;20028;-64
2023/08/18 11:00:00;;;;;;;1.02;0.90;;;27.30;52.50;;;;;;5071959;28;20107;-64
2023/08/18 11:02:28;;;;;;;1.25;0.90;;;27.20;52.50;;;;;;5088782;28;20047;-61
2023/08/18 11:04:54;;;;;;;1.30;1.10;;;27.20;52.50;;;;;;5083500;28;20158;-64
2023/08/18 11:07:20;;;;;;;1.40;0.90;;;27.20;52.60;;;;;;5081785;28;20035;-64
2023/08/18 11:09:46;;;;;;;1.38;1.10;;;27.10;52.60;;;;;;5074487;28;20438;-62
2023/08/18 11:12:15;;;;;;;0.77;0.70;;;27.00;52.70;;;;;;5070986;28;20175;-63
2023/08/18 11:14:41;;;;;;;2.90;1.13;;;27.00;52.80;;;;;;5072108;28;20074;-62
2023/08/18 11:17:07;;;;;;;0.77;0.70;;;27.00;52.80;;;;;;5070378;28;20048;-62
2023/08/18 11:19:32;;;;;;;1.23;0.88;;;26.90;52.90;;;;;;5052544;28;20024;-63
2023/08/18 11:21:58;;;;;;;1.48;1.05;;;26.90;53.00;;;;;;5078607;28;20056;-64
2023/08/18 11:24:25;;;;;;;1.23;1.13;;;26.80;53.00;;;;;;5058401;28;20046;-62
2023/08/18 11:26:51;;;;;;;1.40;1.00;;;26.80;53.10;;;;;;5080026;28;20046;-63
2023/08/18 11:29:17;;;;;;;1.30;1.20;;;26.80;53.20;;;;;;5075518;28;20039;-63
2023/08/18 11:31:47;;;;;;;1.95;1.30;;;26.80;53.30;;;;;;5083135;28;20085;-62
2023/08/18 11:34:13;;;;;;;2.90;1.45;;;26.70;53.40;;;;;;5054527;28;20032;-63
2023/08/18 11:36:40;;;;;;;1.75;1.50;;;26.70;53.60;;;;;;5077924;28;20082;-62
2023/08/18 11:39:09;;;;;;;1.63;1.30;;;26.70;53.80;;;;;;5064792;28;20029;-63
2023/08/18 11:41:44;;;;;;;1.83;1.67;;;26.70;54.00;;;;;;5050918;28;20048;-62
2023/08/18 11:44:11;;;;;;;2.30;1.80;;;26.70;54.10;;;;;;5087658;28;20116;-63
2023/08/18 11:46:38;;;;;;;1.60;1.50;;;26.60;54.20;;;;;;5071800;28;20041;-62
2023/08/18 11:49:18;;;;;;;1.42;1.33;;;26.60;54.30;;;;;;5069737;28;20033;-63
2023/08/18 11:51:55;;;;;;;2.00;1.67;;;26.60;54.50;;;;;;5071702;28;20373;-64
2023/08/18 11:54:22;;;;;;;2.10;1.52;;;26.60;54.60;;;;;;5074231;28;20051;-62
2023/08/18 11:56:50;;;;;;;2.22;1.75;;;26.60;54.70;;;;;;5070974;28;20032;-65
2023/08/18 11:59:23;;;;;;;1.50;1.40;;;26.60;54.80;;;;;;5072899;28;20036;-60
2023/08/18 12:02:05;;;;;;;1.80;1.40;;;26.60;54.80;;;;;;5053109;28;20055;-61
2023/08/18 12:04:33;;;;;;;1.55;1.42;;;26.60;54.90;;;;;;5066645;28;20119;-61
2023/08/18 12:06:59;;;;;;;1.65;1.55;;;26.60;54.90;;;;;;5080005;28;20059;-63
2023/08/18 12:09:25;;;;;;;1.98;1.25;;;26.60;55.00;;;;;;5051070;28;20028;-62
2023/08/18 12:11:51;;;;;;;1.83;1.52;;;26.60;55.10;;;;;;5071313;28;20040;-62
2023/08/18 12:14:18;;;;;;;2.42;1.73;;;26.50;55.10;;;;;;5082241;28;20098;-61
2023/08/18 12:16:45;;;;;;;2.30;1.55;;;26.50;55.20;;;;;;5072355;28;20048;-62
2023/08/18 12:19:12;;;;;;;1.92;1.55;;;26.60;55.30;;;;;;5065956;28;20323;-61
2023/08/18 12:21:38;;;;;;;2.75;1.95;;;26.50;55.30;;;;;;5091736;28;20039;-61
2023/08/18 12:24:07;;;;;;;1.58;1.40;;;26.50;55.40;;;;;;5068227;28;20041;-62
2023/08/18 12:26:34;;;;;;;2.78;1.58;;;26.50;55.40;;;;;;5089376;28;20047;-61
2023/08/18 12:29:04;;;;;;;2.92;1.50;;;26.50;55.50;;;;;;5086387;28;20056;-61
2023/08/18 12:31:33;;;;;;;1.73;1.52;;;26.50;55.60;;;;;;5053707;28;20032;-61
2023/08/18 12:34:05;;;;;;;1.38;1.27;;;26.50;55.60;;;;;;5056579;28;20292;-62
2023/08/18 12:36:35;;;;;;;1.52;1.20;;;26.50;55.60;;;;;;5076737;28;20173;-62
2023/08/18 12:39:01;;;;;;;1.80;1.60;;;26.50;55.60;;;;;;5070826;28;20039;-62
2023/08/18 12:41:28;;;;;;;1.73;1.50;;;26.50;55.70;;;;;;5063804;28;20040;-61
2023/08/18 12:43:55;;;;;;;1.88;1.58;;;26.40;55.80;;;;;;5061527;28;20127;-63
2023/08/18 12:46:21;;;;;;;1.80;1.50;;;26.40;55.90;;;;;;5062268;28;20305;-62
2023/08/18 12:48:47;;;;;;;2.20;1.65;;;26.40;55.90;;;;;;5068774;28;20032;-61
2023/08/18 12:51:17;;;;;;;2.15;1.60;;;26.40;55.90;;;;;;5055593;28;20152;-63